createdAt,value
2018-09-17T00:00:56.512Z,16.27
2018-09-17T00:03:24.868Z,15.33
2018-09-17T00:05:53.257Z,15.53
2018-09-17T00:08:21.637Z,14.50
2018-09-17T00:10:50.033Z,15.50
2018-09-17T00:13:18.426Z,17.60
2018-09-17T00:15:46.933Z,16.53
2018-09-17T00:18:15.306Z,16.07
2018-09-17T00:20:43.673Z,16.70
2018-09-17T00:23:12.054Z,16.30
2018-09-17T00:25:40.476Z,15.27
2018-09-17T00:28:08.886Z,17.43
2018-09-17T00:30:37.306Z,15.93
2018-09-17T00:33:05.705Z,18.00
2018-09-17T00:35:34.153Z,15.93
2018-09-17T00:38:02.531Z,16.40
2018-09-17T00:40:30.916Z,16.77
2018-09-17T00:42:59.347Z,17.83
2018-09-17T00:45:27.776Z,19.03
2018-09-17T00:47:56.229Z,17.50
2018-09-17T00:50:24.630Z,19.03
2018-09-17T00:52:53.021Z,17.33
2018-09-17T00:55:21.446Z,17.07
2018-09-17T00:57:49.888Z,16.93
2018-09-17T01:00:18.514Z,19.30
2018-09-17T01:02:47.053Z,20.40
2018-09-17T01:05:15.529Z,19.33
2018-09-17T01:07:44.117Z,18.90
2018-09-17T01:10:12.540Z,18.13
2018-09-17T01:12:40.884Z,15.47
2018-09-17T01:15:09.386Z,21.80
2018-09-17T01:17:37.841Z,19.40
2018-09-17T01:20:06.366Z,20.13
2018-09-17T01:22:34.877Z,16.87
2018-09-17T01:25:03.333Z,18.90
2018-09-17T01:27:31.744Z,17.93
2018-09-17T01:30:00.187Z,16.37
2018-09-17T01:32:28.611Z,15.33
2018-09-17T01:34:57.013Z,15.60
2018-09-17T01:37:25.446Z,17.37
2018-09-17T01:39:53.892Z,15.00
2018-09-17T01:42:22.310Z,18.87
2018-09-17T01:44:50.763Z,16.60
2018-09-17T01:47:19.162Z,16.47
2018-09-17T01:49:47.670Z,14.93
2018-09-17T01:52:16.100Z,14.60
2018-09-17T01:54:44.771Z,18.43
2018-09-17T01:57:13.201Z,15.93
2018-09-17T01:59:41.637Z,15.13
2018-09-17T02:02:10.303Z,14.30
2018-09-17T02:04:39.450Z,14.60
2018-09-17T02:07:08.275Z,14.00
2018-09-17T02:09:40.715Z,14.00
2018-09-17T02:12:11.370Z,12.97
2018-09-17T02:14:40.493Z,14.70
2018-09-17T02:17:08.924Z,14.50
2018-09-17T02:19:37.946Z,13.00
2018-09-17T02:22:06.449Z,12.80
2018-09-17T02:24:34.867Z,12.00
2018-09-17T02:27:03.261Z,13.10
2018-09-17T02:29:31.639Z,13.13
2018-09-17T02:32:00.045Z,12.63
2018-09-17T02:34:28.459Z,12.23
2018-09-17T02:36:56.848Z,13.43
2018-09-17T02:39:25.209Z,11.90
2018-09-17T02:41:53.616Z,10.17
2018-09-17T02:44:22.034Z,12.37
2018-09-17T02:46:50.441Z,11.40
2018-09-17T02:49:18.846Z,9.90
2018-09-17T02:51:47.193Z,9.80
2018-09-17T02:54:15.569Z,9.37
2018-09-17T02:56:44.004Z,11.40
2018-09-17T02:59:12.420Z,11.30
2018-09-17T03:01:40.850Z,10.10
2018-09-17T03:04:09.274Z,11.53
2018-09-17T03:06:37.712Z,10.37
2018-09-17T03:09:08.097Z,9.43
2018-09-17T03:11:36.615Z,10.20
2018-09-17T03:14:05.025Z,11.20
2018-09-17T03:16:33.466Z,10.30
2018-09-17T03:19:01.880Z,10.10
2018-09-17T03:21:30.270Z,9.47
2018-09-17T03:23:58.680Z,11.60
2018-09-17T03:26:27.118Z,10.27
2018-09-17T03:28:55.541Z,12.20
2018-09-17T03:31:23.902Z,9.20
2018-09-17T03:33:52.328Z,10.83
2018-09-17T03:36:20.754Z,10.27
2018-09-17T03:38:49.769Z,10.73
2018-09-17T03:41:19.277Z,10.00
2018-09-17T03:43:50.759Z,11.30
2018-09-17T03:46:19.254Z,10.23
2018-09-17T03:48:47.804Z,12.97
2018-09-17T03:51:16.586Z,10.20
2018-09-17T03:53:44.981Z,10.87
2018-09-17T03:56:13.377Z,9.70
2018-09-17T03:58:41.772Z,9.10
2018-09-17T04:01:10.144Z,9.30
2018-09-17T04:03:38.553Z,12.17
2018-09-17T04:06:06.952Z,10.70
2018-09-17T04:08:35.356Z,11.93
2018-09-17T04:11:03.707Z,9.80
2018-09-17T04:13:32.101Z,12.57
2018-09-17T04:16:00.529Z,10.27
2018-09-17T04:18:28.944Z,9.37
2018-09-17T04:20:57.335Z,10.87
2018-09-17T04:23:37.260Z,9.03
2018-09-17T04:26:06.945Z,9.40
2018-09-17T04:28:35.931Z,8.63
2018-09-17T04:31:04.499Z,9.63
2018-09-17T04:33:34.944Z,9.23
2018-09-17T04:36:03.692Z,11.00
2018-09-17T04:38:32.100Z,9.93
2018-09-17T04:41:00.528Z,9.80
2018-09-17T04:43:28.920Z,9.90
2018-09-17T04:45:57.377Z,10.37
2018-09-17T04:48:25.765Z,12.10
2018-09-17T04:50:54.168Z,9.23
2018-09-17T04:53:22.592Z,10.23
2018-09-17T04:55:51.068Z,12.47
2018-09-17T04:58:19.605Z,9.97
2018-09-17T05:00:48.305Z,9.03
2018-09-17T05:03:16.706Z,10.20
2018-09-17T05:05:45.119Z,11.77
2018-09-17T05:08:13.593Z,11.03
2018-09-17T05:10:41.953Z,10.90
2018-09-17T05:13:10.475Z,10.90
2018-09-17T05:15:38.959Z,10.27
2018-09-17T05:18:07.573Z,10.37
2018-09-17T05:20:35.973Z,10.00
2018-09-17T05:23:04.584Z,10.70
2018-09-17T05:25:33.006Z,9.90
2018-09-17T05:28:01.417Z,10.20
2018-09-17T05:30:29.835Z,12.80
2018-09-17T05:32:58.223Z,10.93
2018-09-17T05:35:26.680Z,11.13
2018-09-17T05:37:55.098Z,13.47
2018-09-17T05:40:23.512Z,12.30
2018-09-17T05:42:51.903Z,12.47
2018-09-17T05:45:20.331Z,12.90
2018-09-17T05:47:48.768Z,9.60
2018-09-17T05:50:17.159Z,13.23
2018-09-17T05:52:45.613Z,10.53
2018-09-17T05:55:13.981Z,10.00
2018-09-17T05:57:42.436Z,10.67
2018-09-17T06:00:10.886Z,9.30
2018-09-17T06:02:39.273Z,9.93
2018-09-17T06:05:07.720Z,8.43
2018-09-17T06:07:36.181Z,10.20
2018-09-17T06:10:09.115Z,9.37
2018-09-17T06:12:37.538Z,11.73
2018-09-17T06:15:06.332Z,8.87
2018-09-17T06:17:34.863Z,8.40
2018-09-17T06:20:03.329Z,8.33
2018-09-17T06:22:31.875Z,7.87
2018-09-17T06:25:00.264Z,8.80
2018-09-17T06:27:28.661Z,8.47
2018-09-17T06:29:57.319Z,7.83
2018-09-17T06:32:25.701Z,8.60
2018-09-17T06:34:54.165Z,7.43
2018-09-17T06:37:22.551Z,7.10
2018-09-17T06:39:50.996Z,7.50
2018-09-17T06:42:19.391Z,8.80
2018-09-17T06:44:47.884Z,7.50
2018-09-17T06:47:16.467Z,7.00
2018-09-17T06:49:44.866Z,8.60
2018-09-17T06:52:13.230Z,7.97
2018-09-17T06:54:41.652Z,7.87
2018-09-17T06:57:10.083Z,8.07
2018-09-17T06:59:38.510Z,10.40
2018-09-17T07:02:10.389Z,8.10
2018-09-17T07:04:38.773Z,8.70
2018-09-17T07:07:07.195Z,8.00
2018-09-17T07:09:35.609Z,10.20
2018-09-17T07:12:04.074Z,8.63
2018-09-17T07:14:32.498Z,8.37
2018-09-17T07:17:00.881Z,11.23
2018-09-17T07:19:29.331Z,7.63
2018-09-17T07:21:57.782Z,7.30
2018-09-17T07:24:26.221Z,8.40
2018-09-17T07:26:54.576Z,8.17
2018-09-17T07:29:22.997Z,9.63
2018-09-17T07:31:51.401Z,7.90
2018-09-17T07:34:19.840Z,11.77
2018-09-17T07:36:48.241Z,8.37
2018-09-17T07:39:16.626Z,8.47
2018-09-17T07:41:45.062Z,9.43
2018-09-17T07:44:13.504Z,10.13
2018-09-17T07:46:41.881Z,12.60
2018-09-17T07:49:10.273Z,8.27
2018-09-17T07:51:38.735Z,7.47
2018-09-17T07:54:07.109Z,7.97
2018-09-17T07:56:35.550Z,9.10
2018-09-17T07:59:03.922Z,10.40
2018-09-17T08:01:32.297Z,9.20
2018-09-17T08:04:00.744Z,8.57
2018-09-17T08:06:29.143Z,8.70
2018-09-17T08:08:57.651Z,8.77
2018-09-17T08:11:26.010Z,8.80
2018-09-17T08:13:54.462Z,8.23
2018-09-17T08:16:23.055Z,10.23
2018-09-17T08:18:51.475Z,9.10
2018-09-17T08:21:19.939Z,9.37
2018-09-17T08:23:48.322Z,11.23
2018-09-17T08:26:16.745Z,11.20
2018-09-17T08:28:45.119Z,9.13
2018-09-17T08:31:13.595Z,9.07
2018-09-17T08:33:42.183Z,9.63
2018-09-17T08:36:10.574Z,9.67
2018-09-17T08:38:38.962Z,11.57
2018-09-17T08:41:07.630Z,11.10
2018-09-17T08:43:36.114Z,10.67
2018-09-17T08:46:04.869Z,12.20
2018-09-17T08:48:33.244Z,12.33
2018-09-17T08:51:01.675Z,11.23
2018-09-17T08:53:30.084Z,12.00
2018-09-17T08:56:04.566Z,8.93
2018-09-17T08:58:34.523Z,11.07
2018-09-17T09:01:04.078Z,14.40
2018-09-17T09:03:38.386Z,12.50
2018-09-17T09:06:12.510Z,13.63
2018-09-17T09:08:40.962Z,11.90
2018-09-17T09:11:14.618Z,13.63
2018-09-17T09:13:48.631Z,14.63
2018-09-17T09:16:17.099Z,11.40
2018-09-17T09:18:45.630Z,11.07
2018-09-17T09:21:14.090Z,12.63
2018-09-17T09:23:42.525Z,10.17
2018-09-17T09:26:11.207Z,12.47
2018-09-17T09:28:39.765Z,10.73
2018-09-17T09:31:08.195Z,11.83
2018-09-17T09:33:36.590Z,14.53
2018-09-17T09:36:05.022Z,12.00
2018-09-17T09:38:33.402Z,10.43
2018-09-17T09:41:01.858Z,10.07
2018-09-17T09:43:30.295Z,9.23
2018-09-17T09:45:58.741Z,10.33
2018-09-17T09:48:27.212Z,10.07
2018-09-17T09:50:55.683Z,10.40
2018-09-17T09:53:24.093Z,9.60
2018-09-17T09:55:52.478Z,11.17
2018-09-17T09:58:20.907Z,8.93
2018-09-17T10:00:54.641Z,9.57
2018-09-17T10:03:28.467Z,9.20
2018-09-17T10:05:57.009Z,8.43
2018-09-17T10:08:25.412Z,8.07
2018-09-17T10:10:59.229Z,8.80
2018-09-17T10:13:32.935Z,8.33
2018-09-17T10:16:05.490Z,8.13
2018-09-17T10:18:39.126Z,7.70
2018-09-17T10:21:07.532Z,7.40
2018-09-17T10:23:35.981Z,7.27
2018-09-17T10:26:04.403Z,8.97
2018-09-17T10:28:32.826Z,7.47
2018-09-17T10:31:01.261Z,7.83
2018-09-17T10:33:29.667Z,6.63
2018-09-17T10:35:58.179Z,7.80
2018-09-17T10:38:26.588Z,7.70
2018-09-17T10:40:55.024Z,6.97
2018-09-17T10:43:23.442Z,6.90
2018-09-17T10:45:51.917Z,7.30
2018-09-17T10:48:20.328Z,8.37
2018-09-17T10:50:48.721Z,7.97
2018-09-17T10:53:17.109Z,7.60
2018-09-17T10:55:45.480Z,7.00
2018-09-17T10:58:13.938Z,8.37
2018-09-17T11:00:42.357Z,7.57
2018-09-17T11:03:10.729Z,7.00
2018-09-17T11:05:39.143Z,8.00
2018-09-17T11:08:07.551Z,7.60
2018-09-17T11:10:36.309Z,7.10
2018-09-17T11:13:04.741Z,6.83
2018-09-17T11:15:38.473Z,9.77
2018-09-17T11:18:06.874Z,6.93
2018-09-17T11:20:35.293Z,7.60
2018-09-17T11:23:03.694Z,8.03
2018-09-17T11:25:32.162Z,6.77
2018-09-17T11:28:00.572Z,7.87
2018-09-17T11:30:28.993Z,7.70
2018-09-17T11:32:57.370Z,7.63
2018-09-17T11:35:25.776Z,7.07
2018-09-17T11:37:54.135Z,6.87
2018-09-17T11:40:22.884Z,8.43
2018-09-17T11:42:51.317Z,7.47
2018-09-17T11:45:19.763Z,9.67
2018-09-17T11:47:48.197Z,7.30
2018-09-17T11:50:16.717Z,7.43
2018-09-17T11:52:45.156Z,8.73
2018-09-17T11:55:13.606Z,9.30
2018-09-17T11:57:41.983Z,8.53
2018-09-17T12:00:10.858Z,9.57
2018-09-17T12:02:43.445Z,9.60
2018-09-17T12:05:16.060Z,7.17
2018-09-17T12:07:44.471Z,7.67
2018-09-17T12:10:12.895Z,6.70
2018-09-17T12:12:41.267Z,6.40
2018-09-17T12:15:09.808Z,7.03
2018-09-17T12:17:38.223Z,6.70
2018-09-17T12:20:06.735Z,7.20
2018-09-17T12:22:35.192Z,6.30
2018-09-17T12:25:03.614Z,6.57
2018-09-17T12:27:32.044Z,6.57
2018-09-17T12:30:00.473Z,8.30
2018-09-17T12:32:28.862Z,6.00
2018-09-17T12:34:57.197Z,6.73
2018-09-17T12:37:25.625Z,6.70
2018-09-17T12:39:54.088Z,6.80
2018-09-17T12:42:22.523Z,6.47
2018-09-17T12:44:50.893Z,6.47
2018-09-17T12:47:19.496Z,6.87
2018-09-17T12:49:47.936Z,7.00
2018-09-17T12:52:16.399Z,5.93
2018-09-17T12:54:44.769Z,5.33
2018-09-17T12:57:13.393Z,6.00
2018-09-17T12:59:41.973Z,5.63
2018-09-17T13:02:10.442Z,5.30
2018-09-17T13:04:38.896Z,5.47
2018-09-17T13:07:07.633Z,6.17
2018-09-17T13:09:36.081Z,6.07
2018-09-17T13:12:04.505Z,4.73
2018-09-17T13:14:32.911Z,4.90
2018-09-17T13:17:01.323Z,5.50
2018-09-17T13:19:29.723Z,6.13
2018-09-17T13:21:58.149Z,4.47
2018-09-17T13:24:26.490Z,4.20
2018-09-17T13:26:54.919Z,4.67
2018-09-17T13:29:23.339Z,4.77
2018-09-17T13:31:51.833Z,4.10
2018-09-17T13:34:20.312Z,5.13
2018-09-17T13:36:48.769Z,3.90
2018-09-17T13:39:17.196Z,3.83
2018-09-17T13:41:45.569Z,3.30
2018-09-17T13:44:14.036Z,3.97
2018-09-17T13:46:42.650Z,4.20
2018-09-17T13:49:11.269Z,3.90
2018-09-17T13:51:39.860Z,4.70
2018-09-17T13:54:08.450Z,3.60
2018-09-17T13:56:36.856Z,4.90
2018-09-17T13:59:05.993Z,4.07
2018-09-17T14:01:34.661Z,3.53
2018-09-17T14:04:03.355Z,3.80
2018-09-17T14:06:31.940Z,5.87
2018-09-17T14:09:00.601Z,4.23
2018-09-17T14:11:29.188Z,3.57
2018-09-17T14:13:57.563Z,3.90
2018-09-17T14:16:31.232Z,3.67
2018-09-17T14:18:59.598Z,4.00
2018-09-17T14:21:28.037Z,4.27
2018-09-17T14:23:56.449Z,8.47
2018-09-17T14:26:25.416Z,3.93
2018-09-17T14:28:53.853Z,3.07
2018-09-17T14:31:26.514Z,2.33
2018-09-17T14:33:54.943Z,2.80
2018-09-17T14:36:23.363Z,2.90
2018-09-17T14:38:51.753Z,2.93
2018-09-17T14:41:20.321Z,3.03
2018-09-17T14:43:48.910Z,2.73
2018-09-17T14:46:17.679Z,2.87
2018-09-17T14:48:46.193Z,2.83
2018-09-17T14:51:14.623Z,2.70
2018-09-17T14:53:43.219Z,3.27
2018-09-17T14:56:11.836Z,2.50
2018-09-17T14:58:40.458Z,2.77
2018-09-17T15:01:09.021Z,2.53
2018-09-17T15:03:37.627Z,2.30
2018-09-17T15:06:06.483Z,2.67
2018-09-17T15:08:35.001Z,2.50
2018-09-17T15:11:03.903Z,2.23
2018-09-17T15:13:32.529Z,2.73
2018-09-17T15:16:01.001Z,2.47
2018-09-17T15:18:29.530Z,2.37
2018-09-17T15:20:57.943Z,2.20
2018-09-17T15:23:26.548Z,2.50
2018-09-17T15:25:55.265Z,1.97
2018-09-17T15:28:23.960Z,2.00
2018-09-17T15:30:52.481Z,3.13
2018-09-17T15:33:21.054Z,2.10
2018-09-17T15:35:49.650Z,2.33
2018-09-17T15:38:18.296Z,2.27
2018-09-17T15:40:46.973Z,2.17
2018-09-17T15:43:15.528Z,3.00
2018-09-17T15:45:43.953Z,2.20
2018-09-17T15:48:12.396Z,2.20
2018-09-17T15:50:40.833Z,2.60
2018-09-17T15:53:09.226Z,3.10
2018-09-17T15:55:37.628Z,2.00
2018-09-17T15:58:06.285Z,2.40
2018-09-17T16:00:34.836Z,2.17
2018-09-17T16:03:03.318Z,2.20
2018-09-17T16:05:31.865Z,2.77
2018-09-17T16:08:00.258Z,2.63
2018-09-17T16:10:28.841Z,2.70
2018-09-17T16:12:57.234Z,2.20
2018-09-17T16:15:25.643Z,2.00
2018-09-17T16:17:54.100Z,3.87
2018-09-17T16:20:22.596Z,53.73
2018-09-17T16:22:51.000Z,157.40
2018-09-17T16:25:19.432Z,203.53
2018-09-17T16:27:47.859Z,264.03
2018-09-17T16:30:16.229Z,87.87
2018-09-17T16:32:44.647Z,222.13
2018-09-17T16:35:13.098Z,228.50
2018-09-17T16:37:41.535Z,13.00
2018-09-17T16:40:10.157Z,31.27
2018-09-17T16:42:38.786Z,14.33
2018-09-17T16:45:07.231Z,4.43
2018-09-17T16:47:35.656Z,3.47
2018-09-17T16:50:04.839Z,2.27
2018-09-17T16:52:33.258Z,2.00
2018-09-17T16:55:01.636Z,2.00
2018-09-17T16:57:30.032Z,2.10
2018-09-17T16:59:58.420Z,2.40
2018-09-17T17:02:26.863Z,2.33
2018-09-17T17:04:55.297Z,2.97
2018-09-17T17:07:23.891Z,2.40
2018-09-17T17:09:52.229Z,2.30
2018-09-17T17:12:20.913Z,2.20
2018-09-17T17:14:49.344Z,2.03
2018-09-17T17:17:17.737Z,2.40
2018-09-17T17:19:46.142Z,2.70
2018-09-17T17:22:14.571Z,2.27
2018-09-17T17:24:43.121Z,2.40
2018-09-17T17:27:11.530Z,2.30
2018-09-17T17:29:39.918Z,2.77
2018-09-17T17:32:08.349Z,1.97
2018-09-17T17:34:36.792Z,1.90
2018-09-17T17:37:05.217Z,2.43
2018-09-17T17:39:33.670Z,3.30
2018-09-17T17:42:02.259Z,2.13
2018-09-17T17:44:30.604Z,2.30
2018-09-17T17:46:59.010Z,2.10
2018-09-17T17:49:27.706Z,2.37
2018-09-17T17:51:56.196Z,2.43
2018-09-17T17:54:24.740Z,2.67
2018-09-17T17:56:53.290Z,2.40
2018-09-17T17:59:22.040Z,2.20
2018-09-17T18:01:50.485Z,2.50
2018-09-17T18:04:18.959Z,2.80
2018-09-17T18:06:47.510Z,2.43
2018-09-17T18:09:16.136Z,2.40
2018-09-17T18:11:44.714Z,3.27
2018-09-17T18:14:13.111Z,2.50
2018-09-17T18:16:41.726Z,4.57
2018-09-17T18:19:10.184Z,3.50
2018-09-17T18:21:38.687Z,3.43
2018-09-17T18:24:07.253Z,3.40
2018-09-17T18:26:35.675Z,3.80
2018-09-17T18:29:04.100Z,4.33
2018-09-17T18:31:32.557Z,2.70
2018-09-17T18:34:00.953Z,3.47
2018-09-17T18:36:29.399Z,3.83
2018-09-17T18:38:58.079Z,3.33
2018-09-17T18:41:26.680Z,3.23
2018-09-17T18:43:55.085Z,3.33
2018-09-17T18:46:23.566Z,3.20
2018-09-17T18:48:52.019Z,3.40
2018-09-17T18:51:20.467Z,2.70
2018-09-17T18:53:49.113Z,3.43
2018-09-17T18:56:17.726Z,5.63
2018-09-17T18:58:46.332Z,3.63
2018-09-17T19:01:14.806Z,4.00
2018-09-17T19:03:43.254Z,4.13
2018-09-17T19:06:11.749Z,3.87
2018-09-17T19:08:40.427Z,5.00
2018-09-17T19:11:09.080Z,8.17
2018-09-17T19:13:37.546Z,7.00
2018-09-17T19:16:05.930Z,4.50
2018-09-17T19:18:34.407Z,5.27
2018-09-17T19:21:09.681Z,6.13
2018-09-17T19:23:43.626Z,5.27
2018-09-17T19:26:12.162Z,6.50
2018-09-17T19:28:46.063Z,5.37
2018-09-17T19:31:14.533Z,4.20
2018-09-17T19:33:43.045Z,4.60
2018-09-17T19:36:11.596Z,4.60
2018-09-17T19:38:45.588Z,6.50
2018-09-17T19:41:13.953Z,5.63
2018-09-17T19:43:42.407Z,6.83
2018-09-17T19:46:19.251Z,6.43
2018-09-17T19:48:48.316Z,5.57
2018-09-17T19:51:22.231Z,4.47
2018-09-17T19:53:50.841Z,6.43
2018-09-17T19:56:19.502Z,4.97
2018-09-17T19:58:53.244Z,5.50
2018-09-17T20:01:21.668Z,3.67
2018-09-17T20:03:51.773Z,6.83
2018-09-17T20:06:21.804Z,5.43
2018-09-17T20:08:50.341Z,4.57
2018-09-17T20:11:18.783Z,4.23
2018-09-17T20:13:47.332Z,4.17
2018-09-17T20:16:15.781Z,5.00
2018-09-17T20:18:44.172Z,5.17
2018-09-17T20:21:12.641Z,5.80
2018-09-17T20:23:41.043Z,6.47
2018-09-17T20:26:09.467Z,5.57
2018-09-17T20:28:37.872Z,6.87
2018-09-17T20:31:06.530Z,6.67
2018-09-17T20:33:36.219Z,6.67
2018-09-17T20:36:04.992Z,6.17
2018-09-17T20:38:33.450Z,7.50
2018-09-17T20:41:01.996Z,6.43
2018-09-17T20:43:30.329Z,8.07
2018-09-17T20:45:58.751Z,7.63
2018-09-17T20:48:27.170Z,7.10
2018-09-17T20:50:55.602Z,12.63
2018-09-17T20:53:24.006Z,7.40
2018-09-17T20:55:52.418Z,7.67
2018-09-17T20:58:20.895Z,7.10
2018-09-17T21:00:49.341Z,12.37
2018-09-17T21:03:17.861Z,7.30
2018-09-17T21:05:46.217Z,8.10
2018-09-17T21:08:14.670Z,9.47
2018-09-17T21:10:43.096Z,7.83
2018-09-17T21:13:11.505Z,7.00
2018-09-17T21:15:40.124Z,9.50
2018-09-17T21:18:08.795Z,7.83
2018-09-17T21:20:37.233Z,7.80
2018-09-17T21:23:05.686Z,8.07
2018-09-17T21:25:34.116Z,8.70
2018-09-17T21:28:02.553Z,9.53
2018-09-17T21:30:31.163Z,8.40
2018-09-17T21:32:59.549Z,9.63
2018-09-17T21:35:27.939Z,9.97
2018-09-17T21:37:56.325Z,10.50
2018-09-17T21:40:24.751Z,11.30
2018-09-17T21:42:53.215Z,10.23
2018-09-17T21:45:21.799Z,8.93
2018-09-17T21:47:50.237Z,8.57
2018-09-17T21:50:18.636Z,8.63
2018-09-17T21:52:47.076Z,8.20
2018-09-17T21:55:15.462Z,9.47
2018-09-17T21:57:43.915Z,8.20
2018-09-17T22:00:12.682Z,8.10
2018-09-17T22:02:41.131Z,8.53
2018-09-17T22:05:09.535Z,8.63
2018-09-17T22:07:37.940Z,8.70
2018-09-17T22:10:06.745Z,8.63
2018-09-17T22:12:35.162Z,8.27
2018-09-17T22:15:03.638Z,10.87
2018-09-17T22:17:32.043Z,7.90
2018-09-17T22:20:00.465Z,7.43
2018-09-17T22:22:28.861Z,7.83
2018-09-17T22:24:57.268Z,11.77
2018-09-17T22:27:25.662Z,7.73
2018-09-17T22:29:54.060Z,9.97
2018-09-17T22:32:22.461Z,8.87
2018-09-17T22:34:50.918Z,8.63
2018-09-17T22:37:19.349Z,7.90
2018-09-17T22:39:47.741Z,9.10
2018-09-17T22:42:16.279Z,8.43
2018-09-17T22:44:44.780Z,8.83
2018-09-17T22:47:13.223Z,9.00
2018-09-17T22:49:41.643Z,8.80
2018-09-17T22:52:10.025Z,8.33
2018-09-17T22:54:38.453Z,9.67
2018-09-17T22:57:07.097Z,10.13
2018-09-17T22:59:35.524Z,8.87
2018-09-17T23:02:03.908Z,10.23
2018-09-17T23:04:32.359Z,9.60
2018-09-17T23:07:00.841Z,12.17
2018-09-17T23:09:29.247Z,10.40
2018-09-17T23:11:57.703Z,11.63
2018-09-17T23:14:26.092Z,10.40
2018-09-17T23:16:54.458Z,9.63
2018-09-17T23:19:23.288Z,9.97
2018-09-17T23:21:51.655Z,9.63
2018-09-17T23:24:20.065Z,10.10
2018-09-17T23:26:48.467Z,12.50
2018-09-17T23:29:16.929Z,10.00
2018-09-17T23:31:45.324Z,11.33
2018-09-17T23:34:13.769Z,10.57
2018-09-17T23:36:42.212Z,10.30
2018-09-17T23:39:11.772Z,11.23
2018-09-17T23:41:40.644Z,12.23
2018-09-17T23:44:09.061Z,11.77
2018-09-17T23:46:37.547Z,11.27
2018-09-17T23:49:06.324Z,11.23
2018-09-17T23:51:34.734Z,12.03
2018-09-17T23:54:03.185Z,14.63
2018-09-17T23:56:31.630Z,11.30
2018-09-17T23:59:00.054Z,11.97
